Time;durP1;ratioP1;P1;durP2;ratioP2;P2;SDS_P1;SDS_P2;PMS_P1;PMS_P2;Temp;Humidity;BMP_temperature;BMP_pressure;BME280_temperature;BME280_humidity;BME280_pressure;Samples;Min_cycle;Max_cycle;Signal;HPM_P1;HPM_P2
2020/12/25 00:02:12;;;;;;;6.43;4.30;;;;;;;2.94;76.60;98361.91;120501;1143;65085;-89
2020/12/25 00:04:39;;;;;;;8.20;4.20;;;;;;;2.91;76.60;98359.41;120069;1144;65037;-88
2020/12/25 00:07:06;;;;;;;4.70;3.97;;;;;;;2.91;77.55;98366.47;119999;1144;65060;-89
2020/12/25 00:09:33;;;;;;;6.13;4.33;;;;;;;2.89;77.58;98360.44;120056;1144;65082;-90
2020/12/25 00:12:00;;;;;;;6.07;4.30;;;;;;;2.87;77.70;98370.22;120074;1143;65028;-91
2020/12/25 00:14:26;;;;;;;5.10;3.73;;;;;;;2.86;77.42;98381.67;120437;1143;65060;-89
2020/12/25 00:16:53;;;;;;;5.67;4.40;;;;;;;2.84;77.44;98389.67;120036;1143;65242;-88
2020/12/25 00:19:19;;;;;;;81.53;24.03;;;;;;;2.85;77.35;98386.09;119887;1144;65053;-89
2020/12/25 00:21:45;;;;;;;47.73;14.47;;;;;;;2.85;77.36;98388.73;120545;1144;65189;-88
2020/12/25 00:24:12;;;;;;;6.78;4.37;;;;;;;2.84;77.34;98392.31;121174;1143;65024;-88
2020/12/25 00:26:38;;;;;;;9.65;5.00;;;;;;;2.82;77.75;98402.09;120045;1142;65042;-90
2020/12/25 00:29:04;;;;;;;5.40;4.20;;;;;;;2.82;77.85;98401.25;119869;1144;65261;-89
2020/12/25 00:31:38;;;;;;;5.53;3.37;;;;;;;2.81;77.61;98400.39;120059;1143;65092;-91
2020/12/25 00:34:08;;;;;;;16.73;6.63;;;;;;;2.80;77.63;98409.23;120639;1143;65494;-89
2020/12/25 00:36:43;;;;;;;6.37;4.03;;;;;;;2.79;77.11;98418.05;120313;1143;65092;-91
2020/12/25 00:39:14;;;;;;;38.73;11.93;;;;;;;2.79;77.48;98410.14;120356;1143;65085;-90
2020/12/25 00:41:45;;;;;;;9.70;4.97;;;;;;;2.80;77.93;98411.88;120210;1144;65177;-88
2020/12/25 00:44:13;;;;;;;5.70;4.40;;;;;;;2.81;78.33;98413.58;120290;1144;65092;-90
2020/12/25 00:46:40;;;;;;;5.30;3.63;;;;;;;2.81;78.10;98426.77;120245;1144;65104;-91
2020/12/25 00:49:08;;;;;;;9.23;4.97;;;;;;;2.80;77.75;98417.16;120199;1144;65107;-90
2020/12/25 00:51:34;;;;;;;5.57;4.33;;;;;;;2.80;78.29;98411.88;120090;1144;65119;-89
2020/12/25 00:54:01;;;;;;;6.27;4.70;;;;;;;2.82;77.87;98411.80;120290;1143;65272;-91
2020/12/25 00:56:40;;;;;;;8.00;4.63;;;;;;;2.81;78.74;98418.85;120173;1144;65511;-89
2020/12/25 00:59:07;;;;;;;14.05;5.75;;;;;;;2.79;77.75;98428.60;120127;1144;65150;-90
2020/12/25 01:01:37;;;;;;;6.33;4.50;;;;;;;2.79;77.94;98433.03;119950;1144;65059;-88
2020/12/25 01:04:04;;;;;;;10.03;5.13;;;;;;;2.81;77.80;98439.95;119947;1143;65095;-89
2020/12/25 01:06:30;;;;;;;20.50;7.33;;;;;;;2.84;77.77;98446.84;119961;1144;65174;-90
2020/12/25 01:08:57;;;;;;;11.60;5.30;;;;;;;2.85;77.54;98448.54;119964;1144;65152;-90
2020/12/25 01:11:26;;;;;;;5.05;3.60;;;;;;;2.88;78.32;98449.25;120004;1144;65093;-88
2020/12/25 01:13:53;;;;;;;5.03;3.87;;;;;;;2.87;78.22;98446.70;119934;1144;65105;-89
2020/12/25 01:16:19;;;;;;;36.93;12.03;;;;;;;2.86;78.44;98448.48;119887;1144;65095;-91
2020/12/25 01:18:47;;;;;;;9.15;4.80;;;;;;;2.86;77.87;98444.97;119971;1144;65570;-87
2020/12/25 01:21:14;;;;;;;6.53;4.17;;;;;;;2.86;78.31;98456.40;119782;1144;65178;-88
2020/12/25 01:23:41;;;;;;;7.10;4.47;;;;;;;2.88;78.20;98458.95;120142;1143;65117;-87
2020/12/25 01:26:08;;;;;;;20.77;7.60;;;;;;;2.88;78.31;98461.59;121200;1144;65126;-85
2020/12/25 01:28:35;;;;;;;5.60;3.63;;;;;;;2.90;78.04;98462.35;120344;1144;65159;-87
2020/12/25 01:31:03;;;;;;;17.70;5.87;;;;;;;2.90;78.15;98467.63;119935;1144;65184;-89
2020/12/25 01:33:34;;;;;;;6.63;3.43;;;;;;;2.90;78.39;98473.75;120014;1144;65069;-91
2020/12/25 01:36:02;;;;;;;9.47;5.20;;;;;;;2.88;78.03;98470.35;120033;1144;65050;-90
2020/12/25 01:38:28;;;;;;;12.30;5.95;;;;;;;2.89;78.97;98469.41;119963;1144;65104;-89
2020/12/25 01:40:55;;;;;;;5.30;4.10;;;;;;;2.89;78.04;98474.69;120004;1144;65081;-91
2020/12/25 01:43:21;;;;;;;5.15;3.55;;;;;;;2.89;78.47;98468.56;120081;1144;65200;-89
2020/12/25 01:45:47;;;;;;;3.20;2.90;;;;;;;2.89;78.13;98472.05;120034;1144;65471;-89
2020/12/25 01:48:14;;;;;;;6.70;3.67;;;;;;;2.90;77.99;98471.12;120496;1144;65185;-91
2020/12/25 01:50:41;;;;;;;11.30;5.37;;;;;;;2.90;78.04;98468.48;120102;1143;65056;-89
2020/12/25 01:53:10;;;;;;;5.30;3.60;;;;;;;2.90;78.44;98479.03;120180;1143;65104;-89
2020/12/25 01:55:38;;;;;;;16.37;6.53;;;;;;;2.89;78.32;98482.59;120217;1144;65134;-92
2020/12/25 01:58:05;;;;;;;6.43;4.20;;;;;;;2.89;78.45;98479.96;120028;1144;65130;-87
2020/12/25 02:00:33;;;;;;;7.63;3.90;;;;;;;2.89;77.86;98482.59;120327;1142;65094;-90
2020/12/25 02:03:00;;;;;;;7.20;4.00;;;;;;;2.89;78.61;98474.69;120267;1143;65249;-91
2020/12/25 02:05:26;;;;;;;5.43;3.93;;;;;;;2.84;78.10;98486.39;120277;1144;65075;-90
2020/12/25 02:07:56;;;;;;;6.00;4.07;;;;;;;2.78;77.98;98487.55;120147;1144;65264;-89
2020/12/25 02:10:23;;;;;;;14.63;5.53;;;;;;;2.74;77.89;98483.38;120803;1143;65091;-88
2020/12/25 02:12:51;;;;;;;9.50;5.57;;;;;;;2.74;78.27;98488.65;120290;1144;65092;-90
2020/12/25 02:15:18;;;;;;;14.07;5.53;;;;;;;2.71;78.51;98492.27;120492;1144;65155;-90
2020/12/25 02:17:46;;;;;;;9.15;4.90;;;;;;;2.68;78.11;98486.31;120308;1143;65115;-90
2020/12/25 02:20:13;;;;;;;19.23;6.77;;;;;;;2.63;78.43;98493.59;120727;1143;65271;-90
2020/12/25 02:22:40;;;;;;;11.17;4.60;;;;;;;2.58;78.45;98501.71;120783;1144;65018;-91
2020/12/25 02:25:07;;;;;;;13.83;5.60;;;;;;;2.56;78.63;98494.81;121176;1143;65075;-90
2020/12/25 02:27:34;;;;;;;22.27;8.00;;;;;;;2.56;78.06;98494.81;121263;1144;65114;-89
2020/12/25 02:30:01;;;;;;;7.57;4.07;;;;;;;2.55;78.31;98496.61;121213;1144;65050;-91
2020/12/25 02:32:27;;;;;;;6.27;3.67;;;;;;;2.53;78.57;98497.59;120612;1144;65159;-91
2020/12/25 02:34:54;;;;;;;9.37;4.40;;;;;;;2.48;78.33;98505.70;120471;1143;65009;-91
2020/12/25 02:37:20;;;;;;;6.57;4.30;;;;;;;2.48;78.22;98510.13;120462;1144;65020;-89
2020/12/25 02:39:47;;;;;;;11.68;4.58;;;;;;;2.48;78.66;98505.70;120621;1144;65180;-89
2020/12/25 02:42:13;;;;;;;5.85;3.72;;;;;;;2.48;78.68;98507.48;120681;1144;65061;-90
2020/12/25 02:44:42;;;;;;;6.10;3.80;;;;;;;2.48;78.84;98507.48;120743;1144;65213;-90
2020/12/25 02:47:10;;;;;;;19.80;6.33;;;;;;;2.44;78.33;98506.80;120662;1144;65104;-89
2020/12/25 02:49:38;;;;;;;8.53;4.27;;;;;;;2.42;78.61;98506.88;120754;1143;65182;-90
2020/12/25 02:52:04;;;;;;;6.63;3.73;;;;;;;2.40;79.33;98495.54;120875;1144;65052;-92
2020/12/25 02:54:31;;;;;;;8.47;3.97;;;;;;;2.39;78.57;98503.53;120662;1144;63897;-92
2020/12/25 02:56:58;;;;;;;7.80;3.60;;;;;;;2.39;78.29;98514.06;120676;1144;65253;-90
2020/12/25 02:59:25;;;;;;;7.97;4.37;;;;;;;2.40;78.33;98510.50;120805;1144;65098;-90
2020/12/25 03:01:52;;;;;;;8.70;4.47;;;;;;;2.40;78.41;98516.63;121032;1143;65018;-89
2020/12/25 03:04:19;;;;;;;8.50;3.43;;;;;;;2.41;78.53;98518.32;120655;1144;65012;-90
2020/12/25 03:06:47;;;;;;;7.10;3.23;;;;;;;2.40;78.64;98513.13;120543;1144;65122;-90
2020/12/25 03:09:14;;;;;;;8.00;4.25;;;;;;;2.39;78.74;98525.45;120867;1144;65244;-90
2020/12/25 03:11:40;;;;;;;5.00;3.25;;;;;;;2.37;78.95;98527.32;120712;1144;65015;-88
2020/12/25 03:14:07;;;;;;;5.47;3.17;;;;;;;2.37;78.60;98526.47;120659;1144;65143;-91
2020/12/25 03:16:33;;;;;;;3.80;2.40;;;;;;;2.33;78.54;98522.27;120853;1143;65008;-92
2020/12/25 03:19:00;;;;;;;4.60;3.17;;;;;;;2.29;79.04;98528.59;120857;1144;65589;-91
2020/12/25 03:21:26;;;;;;;4.97;3.50;;;;;;;2.28;78.52;98533.01;120854;1143;65171;-90
2020/12/25 03:23:52;;;;;;;6.67;3.67;;;;;;;2.28;78.63;98532.16;120757;1144;65140;-88
2020/12/25 03:26:19;;;;;;;3.33;1.70;;;;;;;2.27;79.03;98540.99;120880;1144;65092;-92
2020/12/25 03:28:45;;;;;;;3.90;2.90;;;;;;;2.23;79.00;98532.39;121190;1144;63951;-90
2020/12/25 03:31:11;;;;;;;5.35;2.80;;;;;;;2.23;78.84;98535.03;121510;1143;63840;-88
2020/12/25 03:33:38;;;;;;;12.63;4.20;;;;;;;2.23;78.56;98540.30;121229;1144;64077;-91
2020/12/25 03:36:04;;;;;;;6.20;3.47;;;;;;;2.23;79.12;98545.56;121189;1143;65034;-92
2020/12/25 03:38:31;;;;;;;10.93;4.97;;;;;;;2.20;79.04;98543.05;121382;1144;65060;-90
2020/12/25 03:41:01;;;;;;;10.47;5.23;;;;;;;2.18;78.89;98551.97;121136;1144;63828;-90
2020/12/25 03:43:27;;;;;;;13.35;5.60;;;;;;;2.15;78.61;98547.67;121012;1144;65034;-92
2020/12/25 03:45:53;;;;;;;6.73;3.57;;;;;;;2.12;79.16;98547.83;121285;1144;65717;-89
2020/12/25 03:48:20;;;;;;;8.07;4.00;;;;;;;2.10;78.89;98545.28;121378;1144;65127;-91
2020/12/25 03:50:46;;;;;;;4.90;2.37;;;;;;;2.09;78.99;98554.08;120986;1144;65102;-90
2020/12/25 03:53:12;;;;;;;4.13;2.80;;;;;;;2.09;79.41;98545.33;121033;1144;65085;-90
2020/12/25 03:55:40;;;;;;;8.90;4.57;;;;;;;2.09;78.85;98546.17;120810;1144;65123;-91
2020/12/25 03:58:06;;;;;;;5.43;3.20;;;;;;;2.09;79.12;98558.49;121036;1144;65168;-90
2020/12/25 04:00:33;;;;;;;7.40;4.00;;;;;;;2.10;79.48;98560.20;120705;1145;65118;-91
2020/12/25 04:02:59;;;;;;;5.05;3.85;;;;;;;2.08;78.87;98567.33;120695;1144;65092;-90
2020/12/25 04:05:25;;;;;;;9.37;4.97;;;;;;;2.08;78.85;98567.33;120675;1144;65137;-91
2020/12/25 04:07:52;;;;;;;8.53;5.13;;;;;;;2.06;79.13;98561.28;121091;1144;65085;-91
2020/12/25 04:10:18;;;;;;;8.97;4.80;;;;;;;2.06;79.06;98570.03;121040;1144;65068;-91
2020/12/25 04:12:45;;;;;;;9.00;5.23;;;;;;;2.09;78.75;98564.61;120851;1144;65063;-89
2020/12/25 04:15:11;;;;;;;8.60;4.60;;;;;;;2.11;79.17;98564.57;120572;1144;65053;-89
2020/12/25 04:17:37;;;;;;;6.30;3.80;;;;;;;2.11;78.91;98561.94;121055;1144;65140;-92
2020/12/25 04:20:04;;;;;;;8.47;4.43;;;;;;;2.09;79.12;98563.77;121033;1143;65034;-91
2020/12/25 04:22:30;;;;;;;6.87;4.17;;;;;;;2.08;79.31;98562.91;121152;1144;65175;-91
2020/12/25 04:24:57;;;;;;;8.70;4.00;;;;;;;2.07;79.16;98568.25;121075;1143;65027;-90
2020/12/25 04:27:23;;;;;;;7.97;4.27;;;;;;;2.06;79.19;98564.77;121184;1144;65050;-91
2020/12/25 04:29:49;;;;;;;6.90;3.92;;;;;;;2.08;79.38;98564.69;120833;1144;65096;-90
2020/12/25 04:32:16;;;;;;;4.77;3.67;;;;;;;2.11;79.02;98572.47;121831;1144;65053;-89
2020/12/25 04:34:42;;;;;;;9.20;4.25;;;;;;;2.11;78.97;98577.73;121610;1143;64986;-89
2020/12/25 04:37:09;;;;;;;8.93;3.67;;;;;;;2.11;79.14;98575.10;120783;1143;65038;-89
2020/12/25 04:39:36;;;;;;;4.37;2.87;;;;;;;2.10;79.06;98570.73;120875;1144;65104;-90
2020/12/25 04:42:02;;;;;;;5.40;3.63;;;;;;;2.08;79.33;98570.81;120525;1144;65047;-90
2020/12/25 04:44:28;;;;;;;6.53;3.60;;;;;;;2.10;79.65;98576.00;120672;1143;65168;-90
2020/12/25 04:47:06;;;;;;;5.17;3.40;;;;;;;2.10;79.56;98573.37;120494;1144;65028;-89
2020/12/25 04:49:35;;;;;;;4.47;3.33;;;;;;;2.13;79.37;98570.61;120426;1144;65063;-88
2020/12/25 04:52:02;;;;;;;7.97;2.83;;;;;;;2.15;79.32;98576.66;120538;1143;65196;-90
2020/12/25 04:54:28;;;;;;;4.70;3.10;;;;;;;2.19;79.29;98582.65;120353;1144;65135;-89
2020/12/25 04:56:58;;;;;;;4.00;2.83;;;;;;;2.18;79.41;98581.80;120285;1143;65012;-89
2020/12/25 04:59:29;;;;;;;5.30;3.20;;;;;;;2.15;79.35;98585.41;120357;1143;65260;-90
2020/12/25 05:01:59;;;;;;;5.33;3.33;;;;;;;2.15;79.48;98584.56;120378;1143;65110;-90
2020/12/25 05:04:27;;;;;;;5.40;3.00;;;;;;;2.13;79.56;98591.69;120687;1142;65121;-90
2020/12/25 05:06:54;;;;;;;4.73;2.80;;;;;;;2.13;79.75;98587.27;120325;1144;65159;-90
2020/12/25 05:09:25;;;;;;;7.97;2.90;;;;;;;2.13;79.92;98587.27;120637;1143;65163;-90
2020/12/25 05:11:54;;;;;;;5.53;2.60;;;;;;;2.14;79.77;98593.39;120343;1144;65196;-90
2020/12/25 05:14:26;;;;;;;4.87;2.33;;;;;;;2.12;79.42;98590.83;120636;1144;65092;-90
2020/12/25 05:16:58;;;;;;;3.70;2.60;;;;;;;2.12;79.53;98593.47;120379;1144;65188;-89
2020/12/25 05:19:29;;;;;;;3.80;2.50;;;;;;;2.14;79.53;98596.02;120373;1143;65136;-90
2020/12/25 05:22:01;;;;;;;4.17;2.93;;;;;;;2.17;79.66;98598.53;120301;1144;65171;-88
2020/12/25 05:24:39;;;;;;;5.05;2.90;;;;;;;2.15;79.83;98598.58;120336;1144;65228;-89
2020/12/25 05:27:13;;;;;;;3.97;2.97;;;;;;;2.17;79.68;98598.53;120358;1143;65426;-90
2020/12/25 05:29:41;;;;;;;3.77;3.10;;;;;;;2.19;79.79;98603.73;120562;1143;65069;-90
2020/12/25 05:32:08;;;;;;;4.30;2.97;;;;;;;2.20;79.38;98608.06;120233;1144;65104;-88
2020/12/25 05:34:36;;;;;;;3.83;3.30;;;;;;;2.22;79.67;98604.42;120995;1143;65082;-89
2020/12/25 05:37:05;;;;;;;5.43;2.80;;;;;;;2.28;79.68;98606.78;121346;1143;65101;-90
2020/12/25 05:39:40;;;;;;;4.60;2.90;;;;;;;2.27;79.61;98607.71;121375;1144;64998;-89
2020/12/25 05:42:08;;;;;;;4.93;3.30;;;;;;;2.27;79.52;98607.71;120855;1144;65209;-90
2020/12/25 05:44:40;;;;;;;4.80;3.70;;;;;;;2.27;79.51;98610.34;120543;1144;65194;-87
2020/12/25 05:47:13;;;;;;;5.90;3.90;;;;;;;2.29;79.55;98613.78;120745;1144;65114;-89
2020/12/25 05:49:40;;;;;;;7.33;4.90;;;;;;;2.30;80.00;98622.55;120912;1143;65079;-89
2020/12/25 05:52:12;;;;;;;9.00;4.30;;;;;;;2.30;79.76;98623.40;121047;1144;65143;-87
2020/12/25 05:54:44;;;;;;;5.43;3.83;;;;;;;2.31;79.75;98625.10;120993;1143;65040;-87
2020/12/25 05:57:14;;;;;;;6.70;4.30;;;;;;;2.35;79.64;98631.07;120681;1143;65095;-88
2020/12/25 05:59:47;;;;;;;10.40;5.65;;;;;;;2.35;79.89;98629.28;120631;1144;65839;-88
2020/12/25 06:02:16;;;;;;;8.90;5.33;;;;;;;2.34;79.59;98632.85;120973;1144;65164;-91
2020/12/25 06:04:47;;;;;;;6.80;4.90;;;;;;;2.31;79.58;98635.64;121479;1144;65520;-88
2020/12/25 06:07:24;;;;;;;8.77;4.37;;;;;;;2.30;79.64;98635.72;121343;1144;65095;-90
2020/12/25 06:10:03;;;;;;;10.70;5.23;;;;;;;2.28;80.12;98633.12;120777;1144;63839;-89
2020/12/25 06:12:44;;;;;;;8.35;4.90;;;;;;;2.31;79.53;98643.55;120895;1144;65104;-88
2020/12/25 06:15:23;;;;;;;6.37;4.40;;;;;;;2.37;79.81;98645.05;120907;1144;65145;-90
2020/12/25 06:18:09;;;;;;;7.97;4.73;;;;;;;2.31;79.83;98642.69;120953;1144;65230;-89
2020/12/25 06:20:51;;;;;;;6.87;3.77;;;;;;;2.27;79.69;98647.23;120481;1144;65098;-88
2020/12/25 06:23:24;;;;;;;7.80;4.20;;;;;;;2.28;79.51;98654.20;120671;1143;65071;-88
2020/12/25 06:25:53;;;;;;;7.95;4.45;;;;;;;2.27;79.62;98655.13;120248;1144;65183;-88
2020/12/25 06:28:20;;;;;;;10.27;6.10;;;;;;;2.26;79.79;98656.06;120361;1145;65254;-88
2020/12/25 06:30:47;;;;;;;13.23;5.37;;;;;;;2.25;79.81;98656.14;120259;1144;64993;-88
2020/12/25 06:33:18;;;;;;;7.63;4.60;;;;;;;2.22;80.12;98665.02;120386;1144;65086;-87
2020/12/25 06:35:48;;;;;;;8.13;5.43;;;;;;;2.18;80.19;98676.64;120258;1144;64999;-86
2020/12/25 06:38:18;;;;;;;5.50;3.93;;;;;;;2.15;79.78;98679.39;120237;1144;64999;-86
2020/12/25 06:40:47;;;;;;;8.13;5.10;;;;;;;2.15;80.24;98682.02;120645;1144;65149;-87
2020/12/25 06:43:18;;;;;;;8.80;5.37;;;;;;;2.14;80.01;98688.22;120220;1144;65189;-89
2020/12/25 06:45:53;;;;;;;8.33;4.93;;;;;;;2.13;80.30;98686.52;119969;1144;65082;-89
2020/12/25 06:48:21;;;;;;;9.17;4.40;;;;;;;2.12;79.92;98695.34;119843;1144;65015;-91
2020/12/25 06:50:52;;;;;;;9.60;5.30;;;;;;;2.11;79.86;98694.49;119954;1144;64974;-89
2020/12/25 06:53:42;;;;;;;9.85;5.35;;;;;;;2.13;80.22;98700.54;119899;1142;65223;-89
2020/12/25 06:56:10;;;;;;;8.00;5.40;;;;;;;2.20;80.28;98698.48;119940;1144;65080;-92
2020/12/25 06:58:48;;;;;;;12.23;5.53;;;;;;;2.21;80.23;98708.09;119986;1143;65130;-86
2020/12/25 07:01:17;;;;;;;9.87;5.40;;;;;;;2.20;80.24;98714.30;119959;1144;65134;-86
2020/12/25 07:03:44;;;;;;;8.47;5.40;;;;;;;2.19;79.98;98709.10;120382;1144;65091;-89
2020/12/25 07:06:12;;;;;;;9.00;5.67;;;;;;;2.18;80.23;98720.56;119903;1144;65191;-90
2020/12/25 07:08:50;;;;;;;8.93;4.47;;;;;;;2.15;80.09;98716.27;120312;1144;65175;-87
2020/12/25 07:11:18;;;;;;;8.97;5.63;;;;;;;2.18;80.14;98716.16;119924;1144;65171;-90
2020/12/25 07:13:45;;;;;;;10.55;4.90;;;;;;;2.21;80.58;98717.78;119964;1144;65155;-89
2020/12/25 07:16:12;;;;;;;10.10;5.05;;;;;;;2.22;80.08;98722.98;119914;1144;65628;-91
2020/12/25 07:18:40;;;;;;;9.10;4.20;;;;;;;2.22;80.22;98719.49;120003;1143;65211;-86
2020/12/25 07:21:08;;;;;;;7.70;4.53;;;;;;;2.25;80.42;98730.77;119857;1144;65095;-90
2020/12/25 07:23:45;;;;;;;6.77;4.53;;;;;;;2.29;80.31;98734.99;120065;1144;65092;-87
2020/12/25 07:26:13;;;;;;;6.63;3.63;;;;;;;2.31;80.33;98738.41;119930;1144;65159;-91
2020/12/25 07:28:40;;;;;;;5.63;4.67;;;;;;;2.31;80.03;98743.67;119840;1144;65165;-90
2020/12/25 07:31:07;;;;;;;6.87;4.23;;;;;;;2.33;80.38;98747.09;120005;1144;65091;-88
2020/12/25 07:33:34;;;;;;;6.43;4.67;;;;;;;2.35;80.38;98747.87;119970;1143;65012;-89
2020/12/25 07:36:00;;;;;;;6.17;4.13;;;;;;;2.34;79.74;98753.21;119873;1144;65025;-92
2020/12/25 07:38:27;;;;;;;5.23;4.20;;;;;;;2.33;79.92;98752.36;119767;1144;65095;-91
2020/12/25 07:40:53;;;;;;;8.30;5.07;;;;;;;2.35;80.50;98760.19;119975;1144;65146;-87
2020/12/25 07:43:20;;;;;;;12.00;7.37;;;;;;;2.37;80.12;98764.49;120090;1143;65252;-86
2020/12/25 07:45:47;;;;;;;14.53;8.23;;;;;;;2.38;80.40;98766.20;121411;1143;65015;-86
2020/12/25 07:48:14;;;;;;;14.40;7.40;;;;;;;2.38;80.26;98771.47;120165;1144;65171;-90
2020/12/25 07:50:45;;;;;;;11.47;6.10;;;;;;;2.39;80.50;98767.05;119791;1144;65055;-87
2020/12/25 07:53:14;;;;;;;18.60;7.27;;;;;;;2.38;80.38;98768.83;119927;1144;65092;-87
2020/12/25 07:55:47;;;;;;;14.57;6.70;;;;;;;2.39;80.14;98767.91;119985;1144;65193;-87
2020/12/25 07:58:15;;;;;;;16.60;6.27;;;;;;;2.40;80.28;98769.61;120084;1144;65149;-88
2020/12/25 08:00:42;;;;;;;12.40;6.40;;;;;;;2.34;80.11;98769.88;119925;1144;65085;-88
2020/12/25 08:03:10;;;;;;;14.43;6.33;;;;;;;2.31;80.45;98780.56;119948;1144;65207;-89
2020/12/25 08:05:37;;;;;;;13.00;6.30;;;;;;;2.29;80.15;98781.53;120071;1144;64993;-89
2020/12/25 08:08:04;;;;;;;21.77;7.90;;;;;;;2.25;80.21;98783.46;119887;1143;65101;-89
2020/12/25 08:10:34;;;;;;;22.20;8.77;;;;;;;2.22;79.96;98780.94;119957;1143;65146;-87
2020/12/25 08:13:05;;;;;;;19.53;6.90;;;;;;;2.21;80.09;98789.77;119887;1144;65197;-88
2020/12/25 08:15:34;;;;;;;20.83;6.93;;;;;;;2.23;80.62;98785.31;119943;1144;65095;-88
2020/12/25 08:18:04;;;;;;;17.23;7.57;;;;;;;2.29;80.45;98792.07;119993;1143;65082;-91
2020/12/25 08:20:32;;;;;;;15.07;7.13;;;;;;;2.32;80.33;98786.69;119949;1143;65251;-88
2020/12/25 08:23:00;;;;;;;17.93;9.57;;;;;;;2.35;80.41;98784.76;119869;1144;65014;-89
2020/12/25 08:25:28;;;;;;;19.80;9.80;;;;;;;2.36;80.58;98799.67;120008;1144;65108;-88
2020/12/25 08:27:56;;;;;;;17.65;10.05;;;;;;;2.37;80.43;98801.38;119921;1144;65187;-87
2020/12/25 08:30:24;;;;;;;29.67;16.67;;;;;;;2.36;80.35;98799.67;119983;1144;65088;-89
2020/12/25 08:32:55;;;;;;;37.30;16.07;;;;;;;2.36;80.11;98807.58;120013;1143;65133;-90
2020/12/25 08:35:27;;;;;;;57.83;20.77;;;;;;;2.35;80.46;98804.98;120579;1144;65182;-86
2020/12/25 08:38:06;;;;;;;47.20;18.50;;;;;;;2.44;80.40;98818.64;120056;1144;65015;-85
2020/12/25 08:40:39;;;;;;;104.23;37.87;;;;;;;2.48;80.31;98821.98;119926;1144;65426;-87
2020/12/25 08:43:11;;;;;;;40.80;15.17;;;;;;;2.48;80.32;98824.63;119948;1144;65082;-87
2020/12/25 08:45:40;;;;;;;41.53;14.73;;;;;;;2.53;80.45;98825.28;120152;1143;65086;-87
2020/12/25 08:48:10;;;;;;;28.80;10.83;;;;;;;2.56;80.65;98834.86;120577;1144;65174;-86
2020/12/25 08:50:38;;;;;;;24.90;9.80;;;;;;;2.62;80.25;98830.18;120025;1144;65188;-88
2020/12/25 08:53:12;;;;;;;15.17;6.23;;;;;;;2.73;80.36;98837.59;119937;1144;65082;-88
2020/12/25 08:55:38;;;;;;;28.60;10.03;;;;;;;2.85;80.11;98836.20;119983;1143;65025;-89
2020/12/25 08:58:05;;;;;;;21.67;8.03;;;;;;;2.90;80.51;98843.00;119874;1144;65156;-87
2020/12/25 09:00:32;;;;;;;10.60;6.10;;;;;;;2.97;80.14;98843.58;119945;1144;65092;-87
2020/12/25 09:02:59;;;;;;;6.00;4.30;;;;;;;3.02;80.24;98851.30;119915;1144;65086;-88
2020/12/25 09:05:26;;;;;;;6.27;3.93;;;;;;;2.98;80.07;98851.41;119962;1144;65158;-87
2020/12/25 09:07:52;;;;;;;18.57;7.53;;;;;;;3.05;80.18;98852.00;119938;1143;64999;-89
2020/12/25 09:10:18;;;;;;;21.47;9.50;;;;;;;3.10;79.99;98854.44;119878;1143;65182;-91
2020/12/25 09:12:45;;;;;;;27.63;12.57;;;;;;;3.10;80.27;98864.99;119920;1144;65123;-87
2020/12/25 09:15:11;;;;;;;17.53;7.93;;;;;;;3.15;80.53;98861.23;119944;1143;65063;-85
2020/12/25 09:17:38;;;;;;;8.50;4.67;;;;;;;3.14;80.22;98862.16;119922;1143;65118;-88
2020/12/25 09:20:05;;;;;;;10.20;4.37;;;;;;;3.15;79.81;98863.86;119910;1144;65050;-86
2020/12/25 09:22:31;;;;;;;8.93;5.67;;;;;;;3.14;80.13;98866.58;119900;1144;65153;-91
2020/12/25 09:24:58;;;;;;;12.43;7.12;;;;;;;3.12;80.25;98865.80;119966;1144;65657;-91
2020/12/25 09:27:24;;;;;;;10.80;5.20;;;;;;;3.17;80.03;98867.28;119994;1144;65066;-87
2020/12/25 09:29:51;;;;;;;13.57;6.83;;;;;;;3.25;80.12;98869.59;119927;1143;65087;-87
2020/12/25 09:32:17;;;;;;;17.03;8.33;;;;;;;3.25;79.75;98865.17;119945;1144;65066;-88
2020/12/25 09:34:44;;;;;;;8.37;4.50;;;;;;;3.30;80.18;98862.30;119907;1144;65162;-86
2020/12/25 09:37:10;;;;;;;10.43;4.47;;;;;;;3.44;80.04;98864.33;119918;1143;65089;-92
2020/12/25 09:39:36;;;;;;;7.95;5.15;;;;;;;3.60;79.88;98867.95;119932;1144;65041;-89
2020/12/25 09:42:03;;;;;;;14.45;7.53;;;;;;;3.66;79.11;98859.75;119954;1144;64970;-87
2020/12/25 09:44:30;;;;;;;15.70;9.27;;;;;;;3.61;79.79;98859.10;119908;1144;65548;-89
2020/12/25 09:46:56;;;;;;;15.40;8.15;;;;;;;3.51;79.92;98869.25;119904;1144;65025;-87
2020/12/25 09:49:23;;;;;;;14.77;7.40;;;;;;;3.45;79.50;98863.41;120236;1143;65114;-87
2020/12/25 09:51:49;;;;;;;26.33;13.20;;;;;;;3.50;80.59;98870.19;120862;1144;64987;-85
2020/12/25 09:54:16;;;;;;;50.07;27.73;;;;;;;3.44;79.99;98870.47;120337;1144;65107;-88
2020/12/25 09:56:42;;;;;;;13.78;7.37;;;;;;;3.35;79.56;98875.30;119986;1143;65200;-89
2020/12/25 09:59:08;;;;;;;10.10;4.70;;;;;;;3.19;79.55;98877.79;119851;1144;65211;-87
2020/12/25 10:01:35;;;;;;;10.17;4.90;;;;;;;3.05;79.94;98877.52;120140;1144;65140;-88
2020/12/25 10:04:02;;;;;;;6.40;4.10;;;;;;;3.07;79.76;98876.55;119857;1143;65191;-88
2020/12/25 10:06:28;;;;;;;6.07;3.17;;;;;;;3.05;79.73;98888.93;120224;1144;65191;-88
2020/12/25 10:08:55;;;;;;;9.10;4.90;;;;;;;3.04;80.18;98887.22;119967;1143;65082;-86
2020/12/25 10:11:21;;;;;;;7.50;3.90;;;;;;;3.08;80.21;98882.68;119945;1144;65118;-89
2020/12/25 10:13:47;;;;;;;12.30;5.40;;;;;;;3.03;79.99;98880.23;120237;1143;65085;-89
2020/12/25 10:16:14;;;;;;;19.97;8.03;;;;;;;3.00;80.03;98884.81;119958;1144;65076;-89
2020/12/25 10:18:40;;;;;;;26.17;11.93;;;;;;;2.95;80.15;98880.58;119942;1142;65124;-90
2020/12/25 10:21:07;;;;;;;22.13;11.83;;;;;;;2.96;79.71;98884.93;119842;1144;65094;-90
2020/12/25 10:23:33;;;;;;;14.17;6.97;;;;;;;2.92;80.12;98877.20;119907;1143;65155;-89
2020/12/25 10:26:00;;;;;;;14.70;7.27;;;;;;;2.88;79.71;98887.05;119900;1144;65159;-88
2020/12/25 10:28:26;;;;;;;12.05;6.10;;;;;;;2.86;80.27;98886.27;119923;1144;65060;-88
2020/12/25 10:30:52;;;;;;;18.67;8.30;;;;;;;2.88;80.31;98891.47;119874;1144;64277;-89
2020/12/25 10:33:19;;;;;;;10.17;4.40;;;;;;;2.90;80.60;98892.26;119906;1144;65089;-88
2020/12/25 10:35:45;;;;;;;155.23;50.63;;;;;;;2.90;80.47;98894.89;119894;1144;65024;-89
2020/12/25 10:38:11;;;;;;;34.97;13.87;;;;;;;2.89;80.68;98901.09;119957;1143;65053;-91
2020/12/25 10:40:38;;;;;;;12.60;6.07;;;;;;;2.87;80.42;98909.09;119943;1143;65178;-88
2020/12/25 10:43:04;;;;;;;10.58;5.00;;;;;;;2.84;80.63;98908.34;119890;1144;65116;-89
2020/12/25 10:45:34;;;;;;;11.27;5.83;;;;;;;2.75;80.12;98914.88;120216;1144;65207;-92
2020/12/25 10:48:01;;;;;;;14.30;8.90;;;;;;;2.69;80.49;98913.36;119968;1143;65091;-89
2020/12/25 10:50:28;;;;;;;12.97;7.93;;;;;;;2.72;80.70;98917.63;120020;1144;65082;-90
2020/12/25 10:52:56;;;;;;;16.50;7.90;;;;;;;2.73;80.62;98921.98;120478;1144;65114;-86
2020/12/25 10:55:22;;;;;;;14.07;8.63;;;;;;;2.76;80.64;98916.59;121297;1143;65569;-88
2020/12/25 10:57:49;;;;;;;17.03;10.67;;;;;;;2.75;80.57;98917.52;120514;1143;65082;-89
2020/12/25 11:00:16;;;;;;;15.37;9.93;;;;;;;2.74;80.49;98913.17;119877;1144;65070;-88
2020/12/25 11:02:43;;;;;;;11.47;7.93;;;;;;;2.76;80.72;98916.59;119780;1144;65073;-89
2020/12/25 11:05:14;;;;;;;20.07;13.53;;;;;;;2.72;80.72;98915.00;119929;1143;65150;-90
2020/12/25 11:07:41;;;;;;;12.67;7.93;;;;;;;2.72;80.44;98920.27;120133;1144;65044;-91
2020/12/25 11:10:07;;;;;;;12.07;7.80;;;;;;;2.70;80.44;98914.21;119834;1144;65095;-89
2020/12/25 11:12:34;;;;;;;12.70;7.87;;;;;;;2.71;80.58;98919.41;119904;1144;65089;-90
2020/12/25 11:15:00;;;;;;;9.98;7.37;;;;;;;2.74;80.38;98926.36;119890;1144;65111;-91
2020/12/25 11:17:26;;;;;;;10.90;5.80;;;;;;;2.73;81.02;98921.98;119957;1144;65149;-91
2020/12/25 11:19:55;;;;;;;16.63;10.83;;;;;;;2.77;80.63;98923.58;119972;1144;65103;-93
2020/12/25 11:22:22;;;;;;;19.60;11.33;;;;;;;2.82;80.95;98918.97;119931;1144;65218;-90
2020/12/25 11:24:49;;;;;;;13.40;7.93;;;;;;;2.85;80.54;98926.73;120005;1143;65078;-91
2020/12/25 11:27:15;;;;;;;16.37;8.40;;;;;;;2.89;80.90;98927.47;119937;1143;65095;-89
2020/12/25 11:29:42;;;;;;;17.20;8.40;;;;;;;2.90;80.55;98931.82;119946;1144;65047;-89
2020/12/25 11:32:09;;;;;;;58.40;27.45;;;;;;;2.90;80.59;98927.40;119923;1144;65121;-91
2020/12/25 11:34:35;;;;;;;104.53;43.37;;;;;;;2.96;81.08;98926.28;119856;1143;65360;-87